createdAt,value
2023-02-26T00:00:33.449Z,0.30
2023-02-26T00:03:00.293Z,0.30
2023-02-26T00:05:27.096Z,0.30
2023-02-26T00:07:53.862Z,0.30
2023-02-26T00:10:20.691Z,0.30
2023-02-26T00:12:47.787Z,0.30
2023-02-26T00:15:17.619Z,0.30
2023-02-26T00:17:49.102Z,0.30
2023-02-26T00:20:17.404Z,0.30
2023-02-26T00:22:44.579Z,0.30
2023-02-26T00:25:13.716Z,0.30
2023-02-26T00:27:40.813Z,0.30
2023-02-26T00:30:09.381Z,0.30
2023-02-26T00:32:36.975Z,0.30
2023-02-26T00:35:04.928Z,0.20
2023-02-26T00:37:54.582Z,0.20
2023-02-26T00:40:23.187Z,0.30
2023-02-26T00:42:50.267Z,0.30
2023-02-26T00:45:17.539Z,0.30
2023-02-26T00:47:48.566Z,0.40
2023-02-26T00:50:23.359Z,0.30
2023-02-26T00:53:11.925Z,0.40
2023-02-26T00:55:39.247Z,0.40
2023-02-26T00:58:06.055Z,0.30
2023-02-26T01:00:32.838Z,0.30
2023-02-26T01:02:59.990Z,0.20
2023-02-26T01:05:27.120Z,0.10
2023-02-26T01:08:15.390Z,0.30
2023-02-26T01:10:42.460Z,0.40
2023-02-26T01:13:09.643Z,0.40
2023-02-26T01:15:36.842Z,0.50
2023-02-26T01:18:12.388Z,0.40
2023-02-26T01:20:46.372Z,0.40
2023-02-26T01:23:17.995Z,0.30
2023-02-26T01:25:58.980Z,0.30
2023-02-26T01:28:27.093Z,0.20
2023-02-26T01:31:00.620Z,0.00
2023-02-26T01:33:29.267Z,0.00
2023-02-26T01:36:09.085Z,-0.10
2023-02-26T01:38:47.874Z,-0.10
2023-02-26T01:41:24.843Z,-0.10
2023-02-26T01:44:10.904Z,-0.10
2023-02-26T01:46:46.136Z,0.10
2023-02-26T01:49:15.993Z,0.10
2023-02-26T01:51:50.845Z,0.20
2023-02-26T01:54:28.229Z,-0.10
2023-02-26T01:57:04.960Z,-0.20
2023-02-26T01:59:34.577Z,-0.20
2023-02-26T02:02:05.226Z,-0.10
2023-02-26T02:04:33.544Z,-0.10
2023-02-26T02:07:01.668Z,-0.20
2023-02-26T02:09:28.454Z,-0.30
2023-02-26T02:12:13.108Z,-0.10
2023-02-26T02:15:07.701Z,-0.10
2023-02-26T02:18:04.463Z,-0.10
2023-02-26T02:20:59.512Z,0.10
2023-02-26T02:23:48.465Z,-0.20
2023-02-26T02:26:52.930Z,-0.30
2023-02-26T02:29:30.537Z,-0.40
2023-02-26T02:32:03.178Z,-0.40
2023-02-26T02:34:49.348Z,-0.50
2023-02-26T02:37:32.741Z,-0.60
2023-02-26T02:40:08.243Z,-0.60
2023-02-26T02:42:47.141Z,-0.40
2023-02-26T02:45:37.686Z,-0.20
2023-02-26T02:48:12.049Z,-0.30
2023-02-26T02:50:43.738Z,-0.50
2023-02-26T02:53:21.060Z,-0.60
2023-02-26T02:55:54.966Z,-0.70
2023-02-26T02:58:26.474Z,-0.70
2023-02-26T03:00:58.261Z,-0.70
2023-02-26T03:03:46.977Z,-0.60
2023-02-26T03:06:13.800Z,-0.70
2023-02-26T03:08:43.046Z,-0.70
2023-02-26T03:11:09.839Z,-0.80
2023-02-26T03:13:39.452Z,-0.90
2023-02-26T03:16:22.084Z,-0.80
2023-02-26T03:19:10.461Z,-0.90
2023-02-26T03:22:16.818Z,-0.90
2023-02-26T03:24:56.585Z,-0.90
2023-02-26T03:27:39.514Z,-0.90
2023-02-26T03:30:08.967Z,-0.90
2023-02-26T03:33:00.822Z,-1.00
2023-02-26T03:35:49.401Z,-1.00
2023-02-26T03:38:57.647Z,-1.00
2023-02-26T03:41:32.406Z,-1.00
2023-02-26T03:44:04.953Z,-1.10
2023-02-26T03:46:41.537Z,-1.10
2023-02-26T03:49:13.349Z,-1.10
2023-02-26T03:51:42.499Z,-1.20
2023-02-26T03:55:12.229Z,-1.20
2023-02-26T03:58:05.092Z,-1.20
2023-02-26T04:01:00.629Z,-1.20
2023-02-26T04:03:38.360Z,-1.30
2023-02-26T04:06:06.708Z,-1.30
2023-02-26T04:08:33.709Z,-1.30
2023-02-26T04:11:27.413Z,-1.40
2023-02-26T04:13:54.274Z,-1.40
2023-02-26T04:16:21.532Z,-1.50
2023-02-26T04:18:48.344Z,-1.50
2023-02-26T04:21:18.825Z,-1.50
2023-02-26T04:23:46.109Z,-1.60
2023-02-26T04:26:13.269Z,-1.60
2023-02-26T04:28:42.225Z,-1.60
2023-02-26T04:31:10.472Z,-1.60
2023-02-26T04:33:37.794Z,-1.60
2023-02-26T04:36:05.432Z,-1.60
2023-02-26T04:38:32.217Z,-1.70
2023-02-26T04:40:59.057Z,-1.80
2023-02-26T04:43:26.031Z,-1.80
2023-02-26T04:46:08.197Z,-1.70
2023-02-26T04:48:36.441Z,-1.60
2023-02-26T04:51:03.446Z,-1.70
2023-02-26T04:53:30.297Z,-1.70
2023-02-26T04:55:57.085Z,-1.90
2023-02-26T04:58:24.046Z,-1.90
2023-02-26T05:00:51.831Z,-2.00
2023-02-26T05:03:19.054Z,-2.00
2023-02-26T05:05:47.075Z,-1.80
2023-02-26T05:08:14.221Z,-1.80
2023-02-26T05:10:41.014Z,-1.90
2023-02-26T05:13:07.762Z,-2.00
2023-02-26T05:15:35.116Z,-2.00
2023-02-26T05:18:01.906Z,-2.00
2023-02-26T05:20:29.492Z,-1.80
2023-02-26T05:22:56.215Z,-1.90
2023-02-26T05:25:23.324Z,-1.90
2023-02-26T05:27:50.074Z,-1.90
2023-02-26T05:30:17.423Z,-1.80
2023-02-26T05:32:45.084Z,-1.90
2023-02-26T05:35:12.126Z,-1.80
2023-02-26T05:37:39.524Z,-1.80
2023-02-26T05:40:10.683Z,-1.90
2023-02-26T05:42:39.045Z,-1.70
2023-02-26T05:45:07.109Z,-1.80
2023-02-26T05:47:35.042Z,-1.90
2023-02-26T05:50:02.442Z,-1.90
2023-02-26T05:52:29.238Z,-1.90
2023-02-26T05:54:56.118Z,-1.90
2023-02-26T05:57:24.016Z,-2.00
2023-02-26T05:59:51.178Z,-2.00
2023-02-26T06:02:18.009Z,-1.90
2023-02-26T06:04:45.046Z,-1.90
2023-02-26T06:07:11.845Z,-1.90
2023-02-26T06:09:38.776Z,-1.80
2023-02-26T06:12:06.705Z,-1.80
2023-02-26T06:14:34.576Z,-1.80
2023-02-26T06:17:01.932Z,-1.90
2023-02-26T06:19:28.626Z,-1.90
2023-02-26T06:21:55.430Z,-1.90
2023-02-26T06:24:22.181Z,-1.90
2023-02-26T06:26:49.030Z,-2.00
2023-02-26T06:29:17.653Z,-1.90
2023-02-26T06:31:45.457Z,-2.00
2023-02-26T06:34:12.331Z,-1.80
2023-02-26T06:36:39.124Z,-1.80
2023-02-26T06:39:06.305Z,-1.90
2023-02-26T06:41:33.087Z,-1.90
2023-02-26T06:44:00.903Z,-1.80
2023-02-26T06:46:27.899Z,-1.80
2023-02-26T06:48:54.853Z,-1.80
2023-02-26T06:51:21.658Z,-1.90
2023-02-26T06:53:48.406Z,-1.90
2023-02-26T06:56:15.210Z,-1.80
2023-02-26T06:58:41.931Z,-1.60
2023-02-26T07:01:08.709Z,-1.80
2023-02-26T07:03:35.480Z,-1.80
2023-02-26T07:06:23.574Z,-1.80
2023-02-26T07:08:49.168Z,-1.90
2023-02-26T07:11:15.905Z,-2.00
2023-02-26T07:13:42.653Z,-2.00
2023-02-26T07:16:10.441Z,-1.90
2023-02-26T07:18:37.852Z,-1.90
2023-02-26T07:21:05.460Z,-1.80
2023-02-26T07:23:32.225Z,-1.90
2023-02-26T07:25:59.230Z,-2.00
2023-02-26T07:28:26.147Z,-2.00
2023-02-26T07:30:54.969Z,-2.00
2023-02-26T07:33:22.159Z,-2.10
2023-02-26T07:35:48.912Z,-2.00
2023-02-26T07:38:15.701Z,-2.00
2023-02-26T07:40:42.505Z,-2.00
2023-02-26T07:43:09.201Z,-2.10
2023-02-26T07:45:35.925Z,-2.00
2023-02-26T07:48:05.528Z,-1.90
2023-02-26T07:50:33.612Z,-1.90
2023-02-26T07:53:00.433Z,-1.90
2023-02-26T07:55:27.755Z,-1.90
2023-02-26T07:57:54.648Z,-2.00
2023-02-26T08:00:21.670Z,-2.10
2023-02-26T08:02:48.588Z,-2.00
2023-02-26T08:05:15.339Z,-2.00
2023-02-26T08:07:42.071Z,-1.90
2023-02-26T08:10:10.234Z,-1.90
2023-02-26T08:12:37.358Z,-1.90
2023-02-26T08:15:05.505Z,-1.90
2023-02-26T08:17:32.349Z,-1.80
2023-02-26T08:19:59.101Z,-2.00
2023-02-26T08:22:25.923Z,-1.90
2023-02-26T08:24:52.880Z,-1.80
2023-02-26T08:27:19.665Z,-1.90
2023-02-26T08:29:46.421Z,-1.90
2023-02-26T08:32:15.655Z,-2.00
2023-02-26T08:34:42.549Z,-2.00
2023-02-26T08:37:11.692Z,-1.70
2023-02-26T08:39:39.176Z,-1.80
2023-02-26T08:42:07.627Z,-1.70
2023-02-26T08:44:34.385Z,-1.60
2023-02-26T08:47:01.212Z,-1.60
2023-02-26T08:49:27.925Z,-1.50
2023-02-26T08:51:54.704Z,-1.60
2023-02-26T08:54:21.494Z,-1.60
2023-02-26T08:56:48.304Z,-1.50
2023-02-26T08:59:15.153Z,-1.50
2023-02-26T09:01:42.050Z,-1.60
2023-02-26T09:04:08.905Z,-1.50
2023-02-26T09:06:35.921Z,-1.60
2023-02-26T09:09:03.401Z,-1.60
2023-02-26T09:11:32.398Z,-1.60
2023-02-26T09:13:59.361Z,-1.50
2023-02-26T09:16:27.131Z,-1.60
2023-02-26T09:18:54.845Z,-1.50
2023-02-26T09:21:21.627Z,-1.50
2023-02-26T09:23:48.375Z,-1.50
2023-02-26T09:26:15.148Z,-1.50
2023-02-26T09:28:41.966Z,-1.60
2023-02-26T09:31:08.866Z,-1.60
2023-02-26T09:33:36.468Z,-1.70
2023-02-26T09:36:03.541Z,-1.70
2023-02-26T09:38:30.397Z,-1.70
2023-02-26T09:41:06.996Z,-1.60
2023-02-26T09:43:56.845Z,-1.60
2023-02-26T09:46:38.358Z,-1.70
2023-02-26T09:49:19.879Z,-1.60
2023-02-26T09:51:52.438Z,-1.50
2023-02-26T09:54:30.008Z,-1.50
2023-02-26T09:57:00.025Z,-1.50
2023-02-26T09:59:33.286Z,-1.70
2023-02-26T10:02:07.357Z,-1.80
2023-02-26T10:04:51.208Z,-1.50
2023-02-26T10:07:42.362Z,-1.40
2023-02-26T10:10:09.091Z,-1.30
2023-02-26T10:12:40.101Z,-1.40
2023-02-26T10:15:18.000Z,-1.30
2023-02-26T10:18:09.605Z,-1.50
2023-02-26T10:20:54.654Z,-1.40
2023-02-26T10:23:48.876Z,-1.50
2023-02-26T10:26:19.428Z,-1.40
2023-02-26T10:29:15.454Z,-1.30
2023-02-26T10:32:26.551Z,-1.30
2023-02-26T10:34:59.866Z,-1.30
2023-02-26T10:37:52.236Z,-1.40
2023-02-26T10:40:32.432Z,-1.30
2023-02-26T10:43:29.459Z,-1.30
2023-02-26T10:46:01.947Z,-1.10
2023-02-26T10:48:44.541Z,-1.30
2023-02-26T10:51:18.395Z,-1.20
2023-02-26T10:53:51.827Z,-1.30
2023-02-26T10:56:25.727Z,-1.20
2023-02-26T10:58:54.905Z,-1.20
2023-02-26T11:01:24.450Z,-1.20
2023-02-26T11:04:18.221Z,-1.20
2023-02-26T11:06:57.771Z,-1.10
2023-02-26T11:09:39.587Z,-1.30
2023-02-26T11:12:12.849Z,-1.20
2023-02-26T11:14:41.930Z,-1.10
2023-02-26T11:17:19.215Z,-1.10
2023-02-26T11:20:02.182Z,-1.00
2023-02-26T11:22:36.314Z,-0.90
2023-02-26T11:25:04.748Z,-1.00
2023-02-26T11:27:35.767Z,-0.80
2023-02-26T11:30:15.494Z,-0.80
2023-02-26T11:32:45.484Z,-1.00
2023-02-26T11:35:15.382Z,-1.00
2023-02-26T11:37:48.585Z,-1.00
2023-02-26T11:40:38.865Z,-1.00
2023-02-26T11:43:09.296Z,-0.90
2023-02-26T11:45:39.241Z,-0.80
2023-02-26T11:48:10.842Z,-0.80
2023-02-26T11:50:49.037Z,-0.70
2023-02-26T11:53:36.912Z,-0.80
2023-02-26T11:56:11.025Z,-0.80
2023-02-26T11:58:39.975Z,-0.80
2023-02-26T12:01:10.491Z,-0.80
2023-02-26T12:03:40.970Z,-0.70
2023-02-26T12:06:19.676Z,-0.70
2023-02-26T12:08:47.072Z,-0.70
2023-02-26T12:11:35.619Z,-0.70
2023-02-26T12:14:21.107Z,-0.50
2023-02-26T12:17:12.608Z,-0.60
2023-02-26T12:20:02.206Z,-0.60
2023-02-26T12:23:10.103Z,-0.70
2023-02-26T12:26:13.560Z,-0.60
2023-02-26T12:29:05.747Z,-0.60
2023-02-26T12:31:46.038Z,-0.50
2023-02-26T12:34:27.299Z,-0.50
2023-02-26T12:37:17.653Z,-0.60
2023-02-26T12:39:47.335Z,-0.60
2023-02-26T12:42:51.383Z,-0.40
2023-02-26T12:45:38.684Z,-0.40
2023-02-26T12:48:24.007Z,-0.30
2023-02-26T12:51:12.839Z,-0.30
2023-02-26T12:54:18.466Z,-0.30
2023-02-26T12:57:06.561Z,-0.40
2023-02-26T13:00:02.512Z,-0.30
2023-02-26T13:02:59.037Z,-0.20
2023-02-26T13:05:37.866Z,-0.10
2023-02-26T13:08:14.693Z,-0.10
2023-02-26T13:10:49.039Z,-0.10
2023-02-26T13:13:41.555Z,-0.10
2023-02-26T13:16:20.269Z,0.00
2023-02-26T13:18:58.021Z,0.10
2023-02-26T13:21:35.004Z,0.00
2023-02-26T13:24:15.610Z,0.00
2023-02-26T13:26:43.620Z,-0.10
2023-02-26T13:29:27.648Z,-0.10
2023-02-26T13:31:57.077Z,0.00
2023-02-26T13:34:30.590Z,-0.30
2023-02-26T13:36:57.959Z,-0.20
2023-02-26T13:40:09.155Z,-0.30
2023-02-26T13:42:44.021Z,-0.30
2023-02-26T13:45:29.545Z,-0.80
2023-02-26T13:48:11.964Z,-0.60
2023-02-26T13:51:10.508Z,-0.60
2023-02-26T13:53:40.334Z,-0.40
2023-02-26T13:56:33.651Z,-0.40
2023-02-26T13:59:06.246Z,-0.40
2023-02-26T14:01:34.638Z,-0.30
2023-02-26T14:04:19.584Z,-0.20
2023-02-26T14:06:54.640Z,-0.10
2023-02-26T14:09:25.817Z,-0.10
2023-02-26T14:11:55.535Z,-0.10
2023-02-26T14:14:22.223Z,0.00
2023-02-26T14:16:53.957Z,0.10
2023-02-26T14:19:37.085Z,0.00
2023-02-26T14:22:20.374Z,0.00
2023-02-26T14:24:58.757Z,0.00
2023-02-26T14:27:33.201Z,-0.10
2023-02-26T14:30:14.830Z,0.10
2023-02-26T14:32:54.282Z,0.10
2023-02-26T14:35:28.700Z,0.00
2023-02-26T14:38:21.333Z,0.10
2023-02-26T14:40:51.289Z,0.00
2023-02-26T14:43:36.912Z,0.00
2023-02-26T14:46:05.756Z,0.00
2023-02-26T14:48:33.321Z,0.00
2023-02-26T14:51:11.956Z,0.00
2023-02-26T14:53:44.775Z,0.10
2023-02-26T14:56:36.129Z,0.20
2023-02-26T14:59:19.349Z,0.20
2023-02-26T15:02:07.219Z,0.50
2023-02-26T15:05:00.647Z,0.30
2023-02-26T15:08:13.082Z,0.40
2023-02-26T15:11:05.861Z,0.60
2023-02-26T15:13:48.937Z,0.50
2023-02-26T15:16:53.309Z,0.40
2023-02-26T15:19:31.271Z,0.50
2023-02-26T15:22:40.745Z,0.20
2023-02-26T15:25:19.933Z,0.20
2023-02-26T15:27:47.653Z,0.20
2023-02-26T15:30:16.116Z,0.20
2023-02-26T15:32:43.019Z,0.20
2023-02-26T15:35:20.153Z,0.20
2023-02-26T15:37:52.948Z,0.20
2023-02-26T15:40:20.163Z,0.20
2023-02-26T15:42:58.607Z,0.10
2023-02-26T15:45:37.274Z,0.20
2023-02-26T15:48:37.482Z,0.10
2023-02-26T15:51:07.047Z,0.00
2023-02-26T15:53:42.667Z,0.10
2023-02-26T15:56:14.917Z,0.00
2023-02-26T15:58:48.498Z,0.10
2023-02-26T16:01:17.889Z,0.00
2023-02-26T16:03:44.658Z,0.00
2023-02-26T16:06:36.490Z,0.00
2023-02-26T16:09:05.918Z,0.00
2023-02-26T16:11:36.773Z,0.00
2023-02-26T16:14:05.109Z,0.00
2023-02-26T16:16:58.783Z,0.10
2023-02-26T16:19:32.324Z,0.00
2023-02-26T16:22:01.464Z,0.00
2023-02-26T16:24:29.099Z,0.00
2023-02-26T16:27:04.874Z,-0.10
2023-02-26T16:29:33.644Z,-0.20
2023-02-26T16:32:03.428Z,-0.30
2023-02-26T16:34:43.464Z,-0.30
2023-02-26T16:37:19.918Z,-0.30
2023-02-26T16:39:46.955Z,-0.20
2023-02-26T16:42:22.817Z,-0.20
2023-02-26T16:44:51.363Z,-0.20
2023-02-26T16:47:20.390Z,-0.20
2023-02-26T16:49:48.100Z,-0.30
2023-02-26T16:52:25.743Z,-0.20
2023-02-26T16:55:05.053Z,-0.20
2023-02-26T16:57:37.310Z,-0.10
2023-02-26T17:00:09.587Z,-0.20
2023-02-26T17:02:38.552Z,-0.20
2023-02-26T17:05:24.755Z,-0.10
2023-02-26T17:07:58.316Z,-0.20
2023-02-26T17:10:34.309Z,-0.30
2023-02-26T17:13:14.122Z,-0.30
2023-02-26T17:15:41.604Z,-0.30
2023-02-26T17:18:08.536Z,-0.30
2023-02-26T17:20:36.946Z,-0.20
2023-02-26T17:23:06.312Z,-0.30
2023-02-26T17:25:40.661Z,-0.30
2023-02-26T17:28:10.313Z,-0.20
2023-02-26T17:30:38.289Z,-0.30
2023-02-26T17:33:07.755Z,-0.40
2023-02-26T17:35:34.663Z,-0.50
2023-02-26T17:38:01.508Z,-0.40
2023-02-26T17:40:36.287Z,-0.50
2023-02-26T17:43:04.707Z,-0.50
2023-02-26T17:45:33.626Z,-0.40
2023-02-26T17:48:00.993Z,-0.60
2023-02-26T17:50:30.045Z,-0.60
2023-02-26T17:52:57.712Z,-0.60
2023-02-26T17:55:24.602Z,-0.70
2023-02-26T17:57:51.454Z,-0.60
2023-02-26T18:00:19.232Z,-0.60
2023-02-26T18:02:45.989Z,-0.60
2023-02-26T18:05:12.835Z,-0.70
2023-02-26T18:07:39.957Z,-0.70
2023-02-26T18:10:07.669Z,-0.80
2023-02-26T18:12:34.515Z,-0.80
2023-02-26T18:15:01.257Z,-0.90
2023-02-26T18:17:31.332Z,-0.90
2023-02-26T18:19:58.567Z,-0.80
2023-02-26T18:22:27.480Z,-0.90
2023-02-26T18:24:55.352Z,-1.00
2023-02-26T18:27:24.432Z,-1.10
2023-02-26T18:29:51.690Z,-1.00
2023-02-26T18:32:25.555Z,-0.90
2023-02-26T18:34:52.810Z,-1.00
2023-02-26T18:37:24.582Z,-1.00
2023-02-26T18:39:51.958Z,-0.90
2023-02-26T18:42:27.552Z,-1.10
2023-02-26T18:44:54.989Z,-1.00
2023-02-26T18:47:22.677Z,-1.10
2023-02-26T18:49:50.779Z,-1.00
2023-02-26T18:52:18.132Z,-1.00
2023-02-26T18:54:45.206Z,-0.90
2023-02-26T18:57:12.193Z,-1.00
2023-02-26T18:59:38.901Z,-1.00
2023-02-26T19:02:06.893Z,-0.90
2023-02-26T19:04:34.573Z,-0.90
2023-02-26T19:07:01.349Z,-0.90
2023-02-26T19:09:28.773Z,-0.90
2023-02-26T19:11:56.803Z,-0.90
2023-02-26T19:14:24.757Z,-1.00
2023-02-26T19:16:51.488Z,-1.10
2023-02-26T19:19:18.692Z,-1.10
2023-02-26T19:21:45.406Z,-1.20
2023-02-26T19:24:13.065Z,-1.20
2023-02-26T19:26:40.680Z,-1.10
2023-02-26T19:29:09.515Z,-1.30
2023-02-26T19:31:39.203Z,-1.30
2023-02-26T19:34:06.244Z,-1.30
2023-02-26T19:36:33.353Z,-1.30
2023-02-26T19:39:01.598Z,-1.30
2023-02-26T19:41:28.992Z,-1.40
2023-02-26T19:43:56.107Z,-1.40
2023-02-26T19:46:23.298Z,-1.50
2023-02-26T19:48:50.261Z,-1.40
2023-02-26T19:51:18.626Z,-1.40
2023-02-26T19:53:45.457Z,-1.50
2023-02-26T19:56:12.626Z,-1.30
2023-02-26T19:58:39.723Z,-1.30
2023-02-26T20:01:06.797Z,-1.30
2023-02-26T20:03:33.825Z,-1.20
2023-02-26T20:06:01.622Z,-1.50
2023-02-26T20:08:29.671Z,-1.30
2023-02-26T20:10:58.250Z,-1.40
2023-02-26T20:13:30.174Z,-1.50
2023-02-26T20:15:58.613Z,-1.50
2023-02-26T20:18:30.767Z,-1.70
2023-02-26T20:21:03.610Z,-1.70
2023-02-26T20:23:34.557Z,-1.80
2023-02-26T20:26:02.157Z,-1.60
2023-02-26T20:28:29.010Z,-1.60
2023-02-26T20:30:55.866Z,-1.70
2023-02-26T20:33:22.738Z,-1.80
2023-02-26T20:35:49.788Z,-1.90
2023-02-26T20:38:18.193Z,-2.00
2023-02-26T20:40:45.004Z,-1.90
2023-02-26T20:43:12.201Z,-1.90
2023-02-26T20:45:41.661Z,-2.00
2023-02-26T20:48:08.784Z,-1.90
2023-02-26T20:50:36.305Z,-1.80
2023-02-26T20:53:04.598Z,-1.70
2023-02-26T20:55:31.393Z,-1.70
2023-02-26T20:57:58.190Z,-1.80
2023-02-26T21:00:25.287Z,-1.60
2023-02-26T21:02:52.110Z,-1.60
2023-02-26T21:05:19.043Z,-1.70
2023-02-26T21:07:45.877Z,-1.80
2023-02-26T21:10:15.705Z,-1.90
2023-02-26T21:12:42.922Z,-1.80
2023-02-26T21:15:11.357Z,-1.80
2023-02-26T21:17:39.961Z,-1.70
2023-02-26T21:20:08.629Z,-1.80
2023-02-26T21:22:36.590Z,-1.80
2023-02-26T21:25:06.377Z,-1.90
2023-02-26T21:27:34.706Z,-1.90
2023-02-26T21:30:01.924Z,-1.90
2023-02-26T21:32:28.684Z,-1.90
2023-02-26T21:34:55.828Z,-2.00
2023-02-26T21:37:22.595Z,-2.00
2023-02-26T21:39:49.346Z,-2.00
2023-02-26T21:42:16.108Z,-2.00
2023-02-26T21:44:43.005Z,-2.00
2023-02-26T21:47:10.258Z,-2.00
2023-02-26T21:49:37.677Z,-2.00
2023-02-26T21:52:06.617Z,-2.00
2023-02-26T21:54:33.482Z,-2.00
2023-02-26T21:57:00.413Z,-2.00
2023-02-26T21:59:27.167Z,-2.00
2023-02-26T22:01:54.107Z,-2.10
2023-02-26T22:04:20.899Z,-2.10
2023-02-26T22:06:47.825Z,-2.10
2023-02-26T22:09:14.768Z,-2.20
2023-02-26T22:11:41.580Z,-2.30
2023-02-26T22:14:08.454Z,-2.40
2023-02-26T22:16:35.244Z,-2.40
2023-02-26T22:19:02.224Z,-2.20
2023-02-26T22:21:29.202Z,-2.40
2023-02-26T22:23:56.143Z,-2.40
2023-02-26T22:26:22.969Z,-2.50
2023-02-26T22:28:49.735Z,-2.40
2023-02-26T22:31:16.543Z,-2.40
2023-02-26T22:33:43.308Z,-2.40
2023-02-26T22:36:10.528Z,-2.50
2023-02-26T22:38:37.264Z,-2.40
2023-02-26T22:41:04.309Z,-2.40
2023-02-26T22:43:31.064Z,-2.30
2023-02-26T22:45:57.848Z,-2.30
2023-02-26T22:48:24.624Z,-2.40
2023-02-26T22:50:51.434Z,-2.50
2023-02-26T22:53:18.145Z,-2.40
2023-02-26T22:55:44.907Z,-2.50
2023-02-26T22:58:11.689Z,-2.50
2023-02-26T23:00:38.416Z,-2.50
2023-02-26T23:03:05.162Z,-2.60
2023-02-26T23:05:31.951Z,-2.50
2023-02-26T23:07:58.760Z,-2.60
2023-02-26T23:10:25.564Z,-2.60
2023-02-26T23:12:52.424Z,-2.50
2023-02-26T23:15:19.558Z,-2.60
2023-02-26T23:17:46.342Z,-2.50
2023-02-26T23:20:14.745Z,-2.50
2023-02-26T23:22:43.707Z,-2.60
2023-02-26T23:25:12.094Z,-2.60
2023-02-26T23:27:39.483Z,-2.70
2023-02-26T23:30:08.244Z,-2.80
2023-02-26T23:32:35.122Z,-2.80
2023-02-26T23:35:01.978Z,-2.70
2023-02-26T23:37:28.811Z,-2.80
2023-02-26T23:39:56.021Z,-2.70
2023-02-26T23:42:22.758Z,-2.80
2023-02-26T23:44:49.641Z,-2.80
2023-02-26T23:47:16.704Z,-2.80
2023-02-26T23:49:43.447Z,-2.80
2023-02-26T23:52:10.165Z,-2.70
2023-02-26T23:54:39.698Z,-2.70
2023-02-26T23:57:06.958Z,-2.70
2023-02-26T23:59:33.844Z,-2.70
